Man, Man Airport (DIMN)

NameMan Airport
CityMan
CountryCote d'Ivoire
ICAODIMN
IATAMJC
Altitude332 m
CoordinatesGoogle Map
Live Air TrafficLiveATC.net
METARDIMN 131100Z 00000KT 4000 HZ NSC FEW013 28/18 Q1014 NOSIG
2017-12-13 11:00:00 Wind: North (0°) 0 m/s - Visibility: 4000 m - Weather: Haze - Temperature: 28 °C - Dew point: 18 °C - Humidity: 54.6% - Pressure: 1014 hPa
Statistics

The table below shows the detailed information of all flights to/from Man, Man Airport (DIMN).